DAD weather

Da Nang International Airport
Da Nang, Da Nang Municipality, Vietnam

Public forecast

Using degrees Celsius for public forecast. Weather courtesy of forecast.io.

METAR (pilot weather report)

Retrieved 2019/03/22 16:00 UTC (27 seconds ago):

VVDN 221600Z 00000KT 7000 FEW013 SCT060 26/24 Q1011 NOSIG

TAF (pilot weather forecast)

Retrieved 2019/03/22 12:36 UTC (3 hours ago):

TAF VVDN 221100Z 2212/2312 17005KT 7000 FEW015 BECMG 2220/2221 3500 BR BECMG 2300/2301 7000 NSW